Time;durP1;ratioP1;P1;durP2;ratioP2;P2;SDS_P1;SDS_P2;PMS_P1;PMS_P2;Temp;Humidity;BMP_temperature;BMP_pressure;BME280_temperature;BME280_humidity;BME280_pressure;Samples;Min_cycle;Max_cycle;Signal;HPM_P1;HPM_P2
2024/04/22 00:00:16;;;;;;;;;;;;;;;;;;5436978;25;19935;-65
2024/04/22 00:02:41;;;;;;;;;;;;;;;;;;5441900;25;19936;-64
2024/04/22 00:05:10;;;;;;;;;;;;;;;;;;5433110;25;19929;-65
2024/04/22 00:07:35;;;;;;;;;;;;;;;;;;5433327;25;19928;-65
2024/04/22 00:10:00;;;;;;;;;;;;;;;;;;5439517;25;19940;-65
2024/04/22 00:12:25;;;;;;;;;;;;;;;;;;5424360;25;20401;-65
2024/04/22 00:14:50;;;;;;;;;;;;;;;;;;5439846;25;19928;-65
2024/04/22 00:17:15;;;;;;;;;;;;;;;;;;5448674;25;19929;-65
2024/04/22 00:19:40;;;;;;;;;;;;;;;;;;5450297;25;20276;-65
2024/04/22 00:22:05;;;;;;;;;;;;;;;;;;5421013;25;20298;-65
2024/04/22 00:24:30;;;;;;;;;;;;;;;;;;5472476;25;19927;-65
2024/04/22 00:26:56;;;;;;;;;;;;;;;;;;5473726;26;19935;-65
2024/04/22 00:29:21;;;;;;;;;;;;;;;;;;5466594;25;19929;-64
2024/04/22 00:31:46;;;;;;;;;;;;;;;;;;5473713;25;20358;-65
2024/04/22 00:34:11;;;;;;;;;;;;;;;;;;5473683;26;19928;-64
2024/04/22 00:36:36;;;;;;;;;;;;;;;;;;5479007;26;19928;-64
2024/04/22 00:39:01;;;;;;;;;;;;;;;;;;5479023;25;20276;-64
2024/04/22 00:41:30;;;;;;;;;;;;;;;;;;5451372;25;19936;-64
2024/04/22 00:43:55;;;;;;;;;;;;;;;;;;5440336;26;19929;-65
2024/04/22 00:46:20;;;;;;;;;;;;;;;;;;5441150;26;19929;-65
2024/04/22 00:48:46;;;;;;;;;;;;;;;;;;5468240;25;20278;-65
2024/04/22 00:51:11;;;;;;;;;;;;;;;;;;5477902;25;19928;-65
2024/04/22 00:53:36;;;;;;;;;;;;;;;;;;5478801;25;20236;-65
2024/04/22 00:56:01;;;;;;;;;;;;;;;;;;5448393;25;20456;-65
2024/04/22 00:58:26;;;;;;;;;;;;;;;;;;5479235;25;19935;-65
2024/04/22 01:00:51;;;;;;;;;;;;;;;;;;5467258;26;20344;-65
2024/04/22 01:03:16;;;;;;;;;;;;;;;;;;5475341;25;19928;-64
2024/04/22 01:05:41;;;;;;;;;;;;;;;;;;5458413;26;20321;-64
2024/04/22 01:08:06;;;;;;;;;;;;;;;;;;5443359;26;20378;-64
2024/04/22 01:10:31;;;;;;;;;;;;;;;;;;5468714;26;20231;-65
2024/04/22 01:12:56;;;;;;;;;;;;;;;;;;5445865;26;20584;-64
2024/04/22 01:15:21;;;;;;;;;;;;;;;;;;5471306;26;19928;-65
2024/04/22 01:17:47;;;;;;;;;;;;;;;;;;5440441;26;19939;-64
2024/04/22 01:20:12;;;;;;;;;;;;;;;;;;5430276;26;20805;-64
2024/04/22 01:22:37;;;;;;;;;;;;;;;;;;5451514;26;19927;-64
2024/04/22 01:25:02;;;;;;;;;;;;;;;;;;5465472;26;19936;-64
2024/04/22 01:27:27;;;;;;;;;;;;;;;;;;5429668;26;19933;-65
2024/04/22 01:29:52;;;;;;;;;;;;;;;;;;5435830;26;20255;-64
2024/04/22 01:32:18;;;;;;;;;;;;;;;;;;5433278;26;19928;-64
2024/04/22 01:34:44;;;;;;;;;;;;;;;;;;5433535;26;20423;-64
2024/04/22 01:37:09;;;;;;;;;;;;;;;;;;5445559;26;19928;-64
2024/04/22 01:39:34;;;;;;;;;;;;;;;;;;5444799;26;19928;-64
2024/04/22 01:41:59;;;;;;;;;;;;;;;;;;5439904;26;19961;-64
2024/04/22 01:44:24;;;;;;;;;;;;;;;;;;5423126;26;19940;-64
2024/04/22 01:46:49;;;;;;;;;;;;;;;;;;5419153;26;19928;-64
2024/04/22 01:49:16;;;;;;;;;;;;;;;;;;5427377;26;19929;-64
2024/04/22 01:51:41;;;;;;;;;;;;;;;;;;5429244;26;19936;-64
2024/04/22 01:54:06;;;;;;;;;;;;;;;;;;5429995;26;19928;-64
2024/04/22 01:56:31;;;;;;;;;;;;;;;;;;5429221;26;19936;-64
2024/04/22 01:58:57;;;;;;;;;;;;;;;;;;5425211;26;20331;-64
2024/04/22 02:01:22;;;;;;;;;;;;;;;;;;5424192;26;19936;-64
2024/04/22 02:03:48;;;;;;;;;;;;;;;;;;5432455;26;19928;-64
2024/04/22 02:06:13;;;;;;;;;;;;;;;;;;5427135;26;19933;-64
2024/04/22 02:08:38;;;;;;;;;;;;;;;;;;5430717;26;19968;-64
2024/04/22 02:11:03;;;;;;;;;;;;;;;;;;5439698;26;19932;-64
2024/04/22 02:13:28;;;;;;;;;;;;;;;;;;5444762;26;20245;-64
2024/04/22 02:15:53;;;;;;;;;;;;;;;;;;5430012;26;19928;-64
2024/04/22 02:18:18;;;;;;;;;;;;;;;;;;5427775;26;19960;-64
2024/04/22 02:20:43;;;;;;;;;;;;;;;;;;5443697;26;19929;-63
2024/04/22 02:23:08;;;;;;;;;;;;;;;;;;5428703;26;19958;-64
2024/04/22 02:25:33;;;;;;;;;;;;;;;;;;5437379;26;19944;-64
2024/04/22 02:27:58;;;;;;;;;;;;;;;;;;5436023;26;20586;-64
2024/04/22 02:30:23;;;;;;;;;;;;;;;;;;5444051;26;20420;-64
2024/04/22 02:32:48;;;;;;;;;;;;;;;;;;5435018;26;19929;-64
2024/04/22 02:35:14;;;;;;;;;;;;;;;;;;5425464;26;19936;-64
2024/04/22 02:37:39;;;;;;;;;;;;;;;;;;5433585;26;20380;-64
2024/04/22 02:40:04;;;;;;;;;;;;;;;;;;5432975;26;20345;-65
2024/04/22 02:42:29;;;;;;;;;;;;;;;;;;5424889;26;20003;-64
2024/04/22 02:44:54;;;;;;;;;;;;;;;;;;5418877;26;19929;-64
2024/04/22 02:47:19;;;;;;;;;;;;;;;;;;5443860;26;19928;-64
2024/04/22 02:49:44;;;;;;;;;;;;;;;;;;5435557;26;19935;-64
2024/04/22 02:52:09;;;;;;;;;;;;;;;;;;5425863;26;19929;-64
2024/04/22 02:54:34;;;;;;;;;;;;;;;;;;5426863;26;20324;-64
2024/04/22 02:56:59;;;;;;;;;;;;;;;;;;5443051;26;20358;-64
2024/04/22 02:59:24;;;;;;;;;;;;;;;;;;5443688;26;19928;-64
2024/04/22 03:01:50;;;;;;;;;;;;;;;;;;5443445;26;19961;-64
2024/04/22 03:04:15;;;;;;;;;;;;;;;;;;5444065;26;19929;-64
2024/04/22 03:06:40;;;;;;;;;;;;;;;;;;5437685;26;19939;-64
2024/04/22 03:09:05;;;;;;;;;;;;;;;;;;5423574;26;20326;-64
2024/04/22 03:11:30;;;;;;;;;;;;;;;;;;5443259;26;19928;-64
2024/04/22 03:13:55;;;;;;;;;;;;;;;;;;5473198;26;19928;-64
2024/04/22 03:16:20;;;;;;;;;;;;;;;;;;5478484;25;19951;-64
2024/04/22 03:18:45;;;;;;;;;;;;;;;;;;5477180;25;19996;-64
2024/04/22 03:21:10;;;;;;;;;;;;;;;;;;5452238;26;19993;-64
2024/04/22 03:23:35;;;;;;;;;;;;;;;;;;5478870;26;19976;-64
2024/04/22 03:26:01;;;;;;;;;;;;;;;;;;5479160;26;20258;-64
2024/04/22 03:28:26;;;;;;;;;;;;;;;;;;5462671;26;20247;-64
2024/04/22 03:30:51;;;;;;;;;;;;;;;;;;5468520;26;20002;-64
2024/04/22 03:33:16;;;;;;;;;;;;;;;;;;5459700;26;19928;-64
2024/04/22 03:35:41;;;;;;;;;;;;;;;;;;5482627;26;20369;-64
2024/04/22 03:38:06;;;;;;;;;;;;;;;;;;5479594;25;19934;-64
2024/04/22 03:40:31;;;;;;;;;;;;;;;;;;5471500;25;19929;-64
2024/04/22 03:42:56;;;;;;;;;;;;;;;;;;5456834;26;19927;-64
2024/04/22 03:45:22;;;;;;;;;;;;;;;;;;5474565;26;19928;-64
2024/04/22 03:50:31;;;;;;;;;;;;;;;;;;5462428;26;20244;-64
2024/04/22 03:52:56;;;;;;;;;;;;;;;;;;5479448;25;20327;-64
2024/04/22 03:55:21;;;;;;;;;;;;;;;;;;5479130;25;19928;-64
2024/04/22 03:57:46;;;;;;;;;;;;;;;;;;5445893;25;19929;-64
2024/04/22 04:00:11;;;;;;;;;;;;;;;;;;5424059;26;19953;-64
2024/04/22 04:02:36;;;;;;;;;;;;;;;;;;5483803;26;19935;-64
2024/04/22 04:05:01;;;;;;;;;;;;;;;;;;5477436;26;19940;-64
2024/04/22 04:07:26;;;;;;;;;;;;;;;;;;5475770;26;19940;-64
2024/04/22 04:09:51;;;;;;;;;;;;;;;;;;5479162;26;19965;-64
2024/04/22 04:12:16;;;;;;;;;;;;;;;;;;5473753;25;19940;-63
2024/04/22 04:14:41;;;;;;;;;;;;;;;;;;5457171;25;19929;-64
2024/04/22 04:17:07;;;;;;;;;;;;;;;;;;5459234;26;20516;-64
2024/04/22 04:19:32;;;;;;;;;;;;;;;;;;5474283;25;19939;-64
2024/04/22 04:21:57;;;;;;;;;;;;;;;;;;5476107;25;19936;-64
2024/04/22 04:24:22;;;;;;;;;;;;;;;;;;5477947;26;20004;-64
2024/04/22 04:26:47;;;;;;;;;;;;;;;;;;5477588;26;19936;-64
2024/04/22 04:29:12;;;;;;;;;;;;;;;;;;5478977;26;20322;-64
2024/04/22 04:31:37;;;;;;;;;;;;;;;;;;5466108;26;19935;-64
2024/04/22 04:34:02;;;;;;;;;;;;;;;;;;5471157;25;19929;-64
2024/04/22 04:36:27;;;;;;;;;;;;;;;;;;5466867;26;19940;-63
2024/04/22 04:38:52;;;;;;;;;;;;;;;;;;5481782;26;19928;-63
2024/04/22 04:41:20;;;;;;;;;;;;;;;;;;5482050;26;19940;-64
2024/04/22 04:43:45;;;;;;;;;;;;;;;;;;5460635;26;19997;-64
2024/04/22 04:46:10;;;;;;;;;;;;;;;;;;5474240;26;19936;-65
2024/04/22 04:48:35;;;;;;;;;;;;;;;;;;5478061;25;20011;-64
2024/04/22 04:51:00;;;;;;;;;;;;;;;;;;5458048;25;19935;-64
2024/04/22 04:53:25;;;;;;;;;;;;;;;;;;5477710;25;19935;-64
2024/04/22 04:55:50;;;;;;;;;;;;;;;;;;5473004;25;19929;-64
2024/04/22 04:58:15;;;;;;;;;;;;;;;;;;5460740;26;19929;-64
2024/04/22 05:00:40;;;;;;;;;;;;;;;;;;5461017;26;20335;-64
2024/04/22 05:03:06;;;;;;;;;;;;;;;;;;5457833;26;19932;-64
2024/04/22 05:05:31;;;;;;;;;;;;;;;;;;5481768;25;19964;-64
2024/04/22 05:07:56;;;;;;;;;;;;;;;;;;5467465;26;19929;-64
2024/04/22 05:10:21;;;;;;;;;;;;;;;;;;5458570;25;19928;-64
2024/04/22 05:12:48;;;;;;;;;;;;;;;;;;5460010;26;20371;-64
2024/04/22 05:15:13;;;;;;;;;;;;;;;;;;5459382;26;19935;-64
2024/04/22 05:17:38;;;;;;;;;;;;;;;;;;5467101;26;19928;-64
2024/04/22 05:20:03;;;;;;;;;;;;;;;;;;5480917;25;20002;-64
2024/04/22 05:22:28;;;;;;;;;;;;;;;;;;5467525;25;19936;-64
2024/04/22 05:24:53;;;;;;;;;;;;;;;;;;5481494;25;20385;-64
2024/04/22 05:27:19;;;;;;;;;;;;;;;;;;5462460;25;20030;-64
2024/04/22 05:29:44;;;;;;;;;;;;;;;;;;5465390;26;19928;-64
2024/04/22 05:32:09;;;;;;;;;;;;;;;;;;5461428;25;19935;-64
2024/04/22 05:37:18;;;;;;;;;;;;;;;;;;5487540;26;19935;-65
2024/04/22 05:39:43;;;;;;;;;;;;;;;;;;5467311;25;19939;-64
2024/04/22 05:42:08;;;;;;;;;;;;;;;;;;5448577;25;19998;-64
2024/04/22 05:44:33;;;;;;;;;;;;;;;;;;5478373;25;19928;-65
2024/04/22 05:46:58;;;;;;;;;;;;;;;;;;5471752;25;19929;-64
2024/04/22 05:49:25;;;;;;;;;;;;;;;;;;5474392;25;20447;-64
2024/04/22 05:51:51;;;;;;;;;;;;;;;;;;5445646;26;19935;-64
2024/04/22 05:54:16;;;;;;;;;;;;;;;;;;5477960;25;19928;-64
2024/04/22 05:56:43;;;;;;;;;;;;;;;;;;5459101;26;19928;-64
2024/04/22 05:59:09;;;;;;;;;;;;;;;;;;5460323;26;19996;-65
2024/04/22 06:01:34;;;;;;;;;;;;;;;;;;5467897;26;19935;-65
2024/04/22 06:03:59;;;;;;;;;;;;;;;;;;5480749;25;19928;-65
2024/04/22 06:06:25;;;;;;;;;;;;;;;;;;5479380;25;20400;-65
2024/04/22 06:08:50;;;;;;;;;;;;;;;;;;5471962;25;19928;-64
2024/04/22 06:11:15;;;;;;;;;;;;;;;;;;5443825;26;19936;-64
2024/04/22 06:13:40;;;;;;;;;;;;;;;;;;5444628;26;19928;-65
2024/04/22 06:16:05;;;;;;;;;;;;;;;;;;5442761;26;19957;-64
2024/04/22 06:18:30;;;;;;;;;;;;;;;;;;5456529;26;20378;-65
2024/04/22 06:20:55;;;;;;;;;;;;;;;;;;5468755;25;19950;-65
2024/04/22 06:23:20;;;;;;;;;;;;;;;;;;5480639;26;19928;-65
2024/04/22 06:25:45;;;;;;;;;;;;;;;;;;5460393;26;19956;-65
2024/04/22 06:28:10;;;;;;;;;;;;;;;;;;5445629;26;19928;-65
2024/04/22 06:30:35;;;;;;;;;;;;;;;;;;5479793;26;20341;-66
2024/04/22 06:33:01;;;;;;;;;;;;;;;;;;5475060;25;19928;-66
2024/04/22 06:35:26;;;;;;;;;;;;;;;;;;5475793;26;19927;-66
2024/04/22 06:37:51;;;;;;;;;;;;;;;;;;5474041;26;20346;-66
2024/04/22 06:40:16;;;;;;;;;;;;;;;;;;5471270;26;19928;-66
2024/04/22 06:42:41;;;;;;;;;;;;;;;;;;5468386;25;20246;-66
2024/04/22 06:45:06;;;;;;;;;;;;;;;;;;5432394;26;19928;-66
2024/04/22 06:47:31;;;;;;;;;;;;;;;;;;5425847;26;19929;-66
2024/04/22 06:49:56;;;;;;;;;;;;;;;;;;5458512;25;19939;-65
2024/04/22 06:52:21;;;;;;;;;;;;;;;;;;5442506;26;19944;-66
2024/04/22 06:54:46;;;;;;;;;;;;;;;;;;5478582;26;20494;-66
2024/04/22 06:57:11;;;;;;;;;;;;;;;;;;5480043;26;20426;-65
2024/04/22 06:59:37;;;;;;;;;;;;;;;;;;5456386;26;19997;-66
2024/04/22 07:02:02;;;;;;;;;;;;;;;;;;5474043;26;19927;-66
2024/04/22 07:04:27;;;;;;;;;;;;;;;;;;5444525;26;19935;-66
2024/04/22 07:06:52;;;;;;;;;;;;;;;;;;5444557;26;20286;-66
2024/04/22 07:09:17;;;;;;;;;;;;;;;;;;5443954;26;19940;-66
2024/04/22 07:11:42;;;;;;;;;;;;;;;;;;5442322;26;19996;-66
2024/04/22 07:14:09;;;;;;;;;;;;;;;;;;5428870;26;19935;-66
2024/04/22 07:16:34;;;;;;;;;;;;;;;;;;5442527;26;19928;-66
2024/04/22 07:18:59;;;;;;;;;;;;;;;;;;5443879;26;20154;-66
2024/04/22 07:21:24;;;;;;;;;;;;;;;;;;5451700;26;20344;-66
2024/04/22 07:23:49;;;;;;;;;;;;;;;;;;5465043;26;19937;-66
2024/04/22 07:26:14;;;;;;;;;;;;;;;;;;5444807;26;19981;-66
2024/04/22 07:28:39;;;;;;;;;;;;;;;;;;5470300;26;19928;-66
2024/04/22 07:31:04;;;;;;;;;;;;;;;;;;5428486;26;19929;-66
2024/04/22 07:33:30;;;;;;;;;;;;;;;;;;5442695;26;19997;-66
2024/04/22 07:35:55;;;;;;;;;;;;;;;;;;5445916;26;20018;-65
2024/04/22 07:38:23;;;;;;;;;;;;;;;;;;5428453;26;20629;-66
2024/04/22 07:40:48;;;;;;;;;;;;;;;;;;5438270;26;21039;-66
2024/04/22 07:43:13;;;;;;;;;;;;;;;;;;5425917;26;19943;-66
2024/04/22 07:45:38;;;;;;;;;;;;;;;;;;5438355;26;20266;-66
2024/04/22 07:48:03;;;;;;;;;;;;;;;;;;5419860;26;19929;-66
2024/04/22 07:50:28;;;;;;;;;;;;;;;;;;5419620;26;19936;-66
2024/04/22 07:52:53;;;;;;;;;;;;;;;;;;5442612;26;20012;-66
2024/04/22 07:55:18;;;;;;;;;;;;;;;;;;5443545;26;19932;-66
2024/04/22 07:57:45;;;;;;;;;;;;;;;;;;5442646;26;19936;-67
2024/04/22 08:00:11;;;;;;;;;;;;;;;;;;5438065;26;19929;-66
2024/04/22 08:02:36;;;;;;;;;;;;;;;;;;5434416;26;19936;-66
2024/04/22 08:05:01;;;;;;;;;;;;;;;;;;5419841;26;19929;-66
2024/04/22 08:07:27;;;;;;;;;;;;;;;;;;5429542;26;19928;-66
2024/04/22 08:09:52;;;;;;;;;;;;;;;;;;5431707;26;19932;-67
2024/04/22 08:12:17;;;;;;;;;;;;;;;;;;5419693;26;21055;-66
2024/04/22 08:14:42;;;;;;;;;;;;;;;;;;5422862;26;19960;-66
2024/04/22 08:17:08;;;;;;;;;;;;;;;;;;5429026;26;19936;-66
2024/04/22 08:19:33;;;;;;;;;;;;;;;;;;5427247;26;20017;-66
2024/04/22 08:21:58;;;;;;;;;;;;;;;;;;5433557;26;19939;-66
2024/04/22 08:24:25;;;;;;;;;;;;;;;;;;5427260;26;19940;-66
2024/04/22 08:26:50;;;;;;;;;;;;;;;;;;5439888;26;20005;-66
2024/04/22 08:29:15;;;;;;;;;;;;;;;;;;5442017;26;19928;-66
2024/04/22 08:31:42;;;;;;;;;;;;;;;;;;5442004;26;20332;-67
2024/04/22 08:34:07;;;;;;;;;;;;;;;;;;5420503;26;19929;-66
2024/04/22 08:36:32;;;;;;;;;;;;;;;;;;5438347;26;19998;-66
2024/04/22 08:38:57;;;;;;;;;;;;;;;;;;5439750;26;19944;-64
2024/04/22 08:41:23;;;;;;;;;;;;;;;;;;5430680;26;19963;-66
2024/04/22 08:43:48;;;;;;;;;;;;;;;;;;5413426;26;19929;-66
2024/04/22 08:46:13;;;;;;;;;;;;;;;;;;5433844;26;20330;-64
2024/04/22 08:48:39;;;;;;;;;;;;;;;;;;5469848;25;20006;-64
2024/04/22 08:51:04;;;;;;;;;;;;;;;;;;5477009;25;19950;-67
2024/04/22 08:53:29;;;;;;;;;;;;;;;;;;5469381;25;19932;-66
2024/04/22 08:55:54;;;;;;;;;;;;;;;;;;5476758;25;19963;-66
2024/04/22 08:58:19;;;;;;;;;;;;;;;;;;5483328;25;19929;-64
2024/04/22 09:00:44;;;;;;;;;;;;;;;;;;5490880;25;19940;-64
2024/04/22 09:03:10;;;;;;;;;;;;;;;;;;5490285;25;19928;-63
2024/04/22 09:05:35;;;;;;;;;;;;;;;;;;5469996;25;19928;-64
2024/04/22 09:08:05;;;;;;;;;;;;;;;;;;5470652;26;19928;-64
2024/04/22 09:10:30;;;;;;;;;;;;;;;;;;5469948;25;20404;-65
2024/04/22 09:12:55;;;;;;;;;;;;;;;;;;5491304;25;20393;-63
2024/04/22 09:15:20;;;;;;;;;;;;;;;;;;5474808;25;19935;-66
2024/04/22 09:17:45;;;;;;;;;;;;;;;;;;5474519;25;19944;-65
2024/04/22 09:20:11;;;;;;;;;;;;;;;;;;5475518;25;19940;-64
2024/04/22 09:22:36;;;;;;;;;;;;;;;;;;5480258;25;20336;-64
2024/04/22 09:25:01;;;;;;;;;;;;;;;;;;5476035;25;19997;-63
2024/04/22 09:27:27;;;;;;;;;;;;;;;;;;5482302;25;19928;-64
2024/04/22 09:29:52;;;;;;;;;;;;;;;;;;5481610;26;19977;-64
2024/04/22 09:32:17;;;;;;;;;;;;;;;;;;5462234;25;19929;-65
2024/04/22 09:34:43;;;;;;;;;;;;;;;;;;5479769;25;20402;-64
2024/04/22 09:37:08;;;;;;;;;;;;;;;;;;5471180;25;19935;-63
2024/04/22 09:39:34;;;;;;;;;;;;;;;;;;5478636;25;19929;-64
2024/04/22 09:41:59;;;;;;;;;;;;;;;;;;5460262;26;19936;-64
2024/04/22 09:44:24;;;;;;;;;;;;;;;;;;5463526;26;19965;-64
2024/04/22 09:46:50;;;;;;;;;;;;;;;;;;5476860;25;20331;-64
2024/04/22 09:49:16;;;;;;;;;;;;;;;;;;5480702;25;19928;-64
2024/04/22 09:51:41;;;;;;;;;;;;;;;;;;5480977;26;19951;-64
2024/04/22 09:54:06;;;;;;;;;;;;;;;;;;5507425;25;19995;-65
2024/04/22 09:56:31;;;;;;;;;;;;;;;;;;5468781;25;19928;-65
2024/04/22 09:58:56;;;;;;;;;;;;;;;;;;5465720;26;19928;-65
2024/04/22 10:01:21;;;;;;;;;;;;;;;;;;5484181;26;19932;-64
2024/04/22 10:03:47;;;;;;;;;;;;;;;;;;5497360;25;19927;-64
2024/04/22 10:06:12;;;;;;;;;;;;;;;;;;5465395;26;20425;-66
2024/04/22 10:08:37;;;;;;;;;;;;;;;;;;5476940;25;19943;-66
2024/04/22 10:11:04;;;;;;;;;;;;;;;;;;5478946;25;21333;-65
2024/04/22 10:13:29;;;;;;;;;;;;;;;;;;5486273;25;19927;-64
2024/04/22 10:15:54;;;;;;;;;;;;;;;;;;5477151;25;19928;-64
2024/04/22 10:18:19;;;;;;;;;;;;;;;;;;5484805;25;19954;-64
2024/04/22 10:20:44;;;;;;;;;;;;;;;;;;5465266;25;20448;-65
2024/04/22 10:23:09;;;;;;;;;;;;;;;;;;5473485;25;19935;-64
2024/04/22 10:25:34;;;;;;;;;;;;;;;;;;5482375;26;19939;-64
2024/04/22 10:27:59;;;;;;;;;;;;;;;;;;5486937;25;20328;-64
2024/04/22 10:30:25;;;;;;;;;;;;;;;;;;5466426;25;19940;-64
2024/04/22 10:32:50;;;;;;;;;;;;;;;;;;5468992;25;19943;-64
2024/04/22 10:35:15;;;;;;;;;;;;;;;;;;5464085;26;19996;-65
2024/04/22 10:37:40;;;;;;;;;;;;;;;;;;5480814;26;20385;-65
2024/04/22 10:40:05;;;;;;;;;;;;;;;;;;5467853;25;20312;-64
2024/04/22 10:42:30;;;;;;;;;;;;;;;;;;5478487;26;20269;-66
2024/04/22 10:44:55;;;;;;;;;;;;;;;;;;5457872;26;19976;-66
2024/04/22 10:47:20;;;;;;;;;;;;;;;;;;5460366;26;20339;-67
2024/04/22 10:49:45;;;;;;;;;;;;;;;;;;5457652;26;19928;-66
2024/04/22 10:52:11;;;;;;;;;;;;;;;;;;5467152;25;19927;-66
2024/04/22 10:54:36;;;;;;;;;;;;;;;;;;5474865;26;19935;-66
2024/04/22 10:57:01;;;;;;;;;;;;;;;;;;5461918;26;19932;-67
2024/04/22 10:59:26;;;;;;;;;;;;;;;;;;5469657;26;19964;-64
2024/04/22 11:01:51;;;;;;;;;;;;;;;;;;5456524;26;20395;-64
2024/04/22 11:04:16;;;;;;;;;;;;;;;;;;5471957;26;19928;-66
2024/04/22 11:06:41;;;;;;;;;;;;;;;;;;5474576;26;19929;-66
2024/04/22 11:09:06;;;;;;;;;;;;;;;;;;5455469;26;19939;-65
2024/04/22 11:11:33;;;;;;;;;;;;;;;;;;5453070;26;19937;-66
2024/04/22 11:13:58;;;;;;;;;;;;;;;;;;5469447;26;19935;-65
2024/04/22 11:16:23;;;;;;;;;;;;;;;;;;5443436;26;19929;-65
2024/04/22 11:18:48;;;;;;;;;;;;;;;;;;5470540;26;20255;-65
2024/04/22 11:21:14;;;;;;;;;;;;;;;;;;5473282;26;19996;-66
2024/04/22 11:23:39;;;;;;;;;;;;;;;;;;5454307;26;19960;-66
2024/04/22 11:26:05;;;;;;;;;;;;;;;;;;5470277;26;19935;-65
2024/04/22 11:28:30;;;;;;;;;;;;;;;;;;5474547;26;19928;-66
2024/04/22 11:30:55;;;;;;;;;;;;;;;;;;5471700;25;20426;-66
2024/04/22 11:33:23;;;;;;;;;;;;;;;;;;5470303;25;19928;-65
2024/04/22 11:35:48;;;;;;;;;;;;;;;;;;5471042;25;19928;-66
2024/04/22 11:38:13;;;;;;;;;;;;;;;;;;5473304;25;19935;-67
2024/04/22 11:40:38;;;;;;;;;;;;;;;;;;5476081;25;19963;-66
2024/04/22 11:43:03;;;;;;;;;;;;;;;;;;5484124;26;20367;-66
2024/04/22 11:45:28;;;;;;;;;;;;;;;;;;5457239;25;20289;-65
2024/04/22 11:47:54;;;;;;;;;;;;;;;;;;5462076;25;20347;-66
2024/04/22 11:50:21;;;;;;;;;;;;;;;;;;5462293;25;19927;-64
2024/04/22 11:52:47;;;;;;;;;;;;;;;;;;5459413;26;19929;-65
2024/04/22 11:55:12;;;;;;;;;;;;;;;;;;5440811;26;19935;-65
2024/04/22 11:57:37;;;;;;;;;;;;;;;;;;5479950;25;19997;-65
2024/04/22 12:00:02;;;;;;;;;;;;;;;;;;5446249;25;20449;-65
2024/04/22 12:02:27;;;;;;;;;;;;;;;;;;5443725;26;19940;-66
2024/04/22 12:04:54;;;;;;;;;;;;;;;;;;5455593;26;19935;-65
2024/04/22 12:07:19;;;;;;;;;;;;;;;;;;5465893;25;20451;-65
2024/04/22 12:09:44;;;;;;;;;;;;;;;;;;5453947;25;20373;-65
2024/04/22 12:12:09;;;;;;;;;;;;;;;;;;5444185;26;20061;-65
2024/04/22 12:14:34;;;;;;;;;;;;;;;;;;5464391;25;19927;-65
2024/04/22 12:16:59;;;;;;;;;;;;;;;;;;5449803;26;19929;-65
2024/04/22 12:19:24;;;;;;;;;;;;;;;;;;5479086;25;19996;-65
2024/04/22 12:21:49;;;;;;;;;;;;;;;;;;5464065;26;19938;-65
2024/04/22 12:24:14;;;;;;;;;;;;;;;;;;5463954;26;20265;-65
2024/04/22 12:26:39;;;;;;;;;;;;;;;;;;5479293;25;19939;-65
2024/04/22 12:29:04;;;;;;;;;;;;;;;;;;5460709;25;19929;-67
2024/04/22 12:31:30;;;;;;;;;;;;;;;;;;5428948;26;19948;-63
2024/04/22 12:33:55;;;;;;;;;;;;;;;;;;5438029;26;19943;-64
2024/04/22 12:36:20;;;;;;;;;;;;;;;;;;5439433;26;20250;-65
2024/04/22 12:38:45;;;;;;;;;;;;;;;;;;5438801;26;19937;-65
2024/04/22 12:41:10;;;;;;;;;;;;;;;;;;5448172;26;19929;-64
2024/04/22 12:43:35;;;;;;;;;;;;;;;;;;5453844;25;19968;-65
2024/04/22 12:46:00;;;;;;;;;;;;;;;;;;5453454;25;19936;-65
2024/04/22 12:51:09;;;;;;;;;;;;;;;;;;5441890;26;19943;-65
2024/04/22 12:53:34;;;;;;;;;;;;;;;;;;5461596;25;19928;-65
2024/04/22 12:55:59;;;;;;;;;;;;;;;;;;5431816;26;19937;-64
2024/04/22 12:58:24;;;;;;;;;;;;;;;;;;5418991;26;19928;-65
2024/04/22 13:00:49;;;;;;;;;;;;;;;;;;5446572;26;19997;-65
2024/04/22 13:03:14;;;;;;;;;;;;;;;;;;5438477;26;20496;-65
2024/04/22 13:05:39;;;;;;;;;;;;;;;;;;5443362;26;20206;-64
2024/04/22 13:08:04;;;;;;;;;;;;;;;;;;5431004;26;19936;-65
2024/04/22 13:10:30;;;;;;;;;;;;;;;;;;5443911;26;19929;-64
2024/04/22 13:12:55;;;;;;;;;;;;;;;;;;5445228;26;19929;-65
2024/04/22 13:15:20;;;;;;;;;;;;;;;;;;5433687;26;19936;-65
2024/04/22 13:17:45;;;;;;;;;;;;;;;;;;5445335;26;19936;-64
2024/04/22 13:20:10;;;;;;;;;;;;;;;;;;5440808;26;19928;-65
2024/04/22 13:22:35;;;;;;;;;;;;;;;;;;5432064;26;20269;-64
2024/04/22 13:25:00;;;;;;;;;;;;;;;;;;5443494;26;20010;-64
2024/04/22 13:27:25;;;;;;;;;;;;;;;;;;5455679;26;19936;-65
2024/04/22 13:29:51;;;;;;;;;;;;;;;;;;5436748;25;20370;-65
2024/04/22 13:32:19;;;;;;;;;;;;;;;;;;5471751;25;19935;-64
2024/04/22 13:34:44;;;;;;;;;;;;;;;;;;5458703;25;19945;-65
2024/04/22 13:37:09;;;;;;;;;;;;;;;;;;5443822;26;19933;-65
2024/04/22 13:39:35;;;;;;;;;;;;;;;;;;5478494;26;19940;-65
2024/04/22 13:42:00;;;;;;;;;;;;;;;;;;5477755;25;20437;-64
2024/04/22 13:44:25;;;;;;;;;;;;;;;;;;5449783;25;19928;-65
2024/04/22 13:46:50;;;;;;;;;;;;;;;;;;5467761;26;19933;-65
2024/04/22 13:49:15;;;;;;;;;;;;;;;;;;5464066;26;19928;-65
2024/04/22 13:51:40;;;;;;;;;;;;;;;;;;5481324;25;20368;-65
2024/04/22 13:54:06;;;;;;;;;;;;;;;;;;5478951;25;20030;-65
2024/04/22 13:56:31;;;;;;;;;;;;;;;;;;5465690;25;19928;-65
2024/04/22 13:58:56;;;;;;;;;;;;;;;;;;5478701;25;19934;-65
2024/04/22 14:01:21;;;;;;;;;;;;;;;;;;5472492;25;19931;-65
2024/04/22 14:03:47;;;;;;;;;;;;;;;;;;5442164;26;20289;-64
2024/04/22 14:06:12;;;;;;;;;;;;;;;;;;5442800;26;19928;-65
2024/04/22 14:08:37;;;;;;;;;;;;;;;;;;5439133;26;19951;-65
2024/04/22 14:11:03;;;;;;;;;;;;;;;;;;5456380;26;19938;-65
2024/04/22 14:13:28;;;;;;;;;;;;;;;;;;5476413;26;19978;-65
2024/04/22 14:15:53;;;;;;;;;;;;;;;;;;5492338;26;19955;-65
2024/04/22 14:18:18;;;;;;;;;;;;;;;;;;5480006;25;20275;-65
2024/04/22 14:20:43;;;;;;;;;;;;;;;;;;5454026;25;19928;-65
2024/04/22 14:23:08;;;;;;;;;;;;;;;;;;5427691;26;19941;-64
2024/04/22 14:25:34;;;;;;;;;;;;;;;;;;5426010;26;20169;-64
2024/04/22 14:27:59;;;;;;;;;;;;;;;;;;5426389;26;20653;-65
2024/04/22 14:30:24;;;;;;;;;;;;;;;;;;5468535;25;19928;-65
2024/04/22 14:32:49;;;;;;;;;;;;;;;;;;5452280;26;19935;-65
2024/04/22 14:35:14;;;;;;;;;;;;;;;;;;5431411;26;19936;-65
2024/04/22 14:37:39;;;;;;;;;;;;;;;;;;5437156;26;19933;-66
2024/04/22 14:40:05;;;;;;;;;;;;;;;;;;5437246;26;19972;-66
2024/04/22 14:42:30;;;;;;;;;;;;;;;;;;5442342;26;19935;-66
2024/04/22 14:44:55;;;;;;;;;;;;;;;;;;5442571;26;19929;-66
2024/04/22 14:47:20;;;;;;;;;;;;;;;;;;5429222;26;19936;-66
2024/04/22 14:49:45;;;;;;;;;;;;;;;;;;5433956;26;20325;-66
2024/04/22 14:52:10;;;;;;;;;;;;;;;;;;5436722;26;19976;-66
2024/04/22 14:54:35;;;;;;;;;;;;;;;;;;5443690;26;19928;-66
2024/04/22 14:57:00;;;;;;;;;;;;;;;;;;5444006;26;19939;-66
2024/04/22 14:59:25;;;;;;;;;;;;;;;;;;5429244;26;20333;-66
2024/04/22 15:01:51;;;;;;;;;;;;;;;;;;5433671;26;19957;-66
2024/04/22 15:04:16;;;;;;;;;;;;;;;;;;5441194;26;20005;-66
2024/04/22 15:06:44;;;;;;;;;;;;;;;;;;5433758;26;19999;-66
2024/04/22 15:09:09;;;;;;;;;;;;;;;;;;5427956;26;19928;-66
2024/04/22 15:11:34;;;;;;;;;;;;;;;;;;5439060;26;19962;-66
2024/04/22 15:13:59;;;;;;;;;;;;;;;;;;5428410;26;19977;-66
2024/04/22 15:16:25;;;;;;;;;;;;;;;;;;5427871;26;20052;-66
2024/04/22 15:18:50;;;;;;;;;;;;;;;;;;5444449;26;20285;-67
2024/04/22 15:21:16;;;;;;;;;;;;;;;;;;5445618;26;19956;-66
2024/04/22 15:23:41;;;;;;;;;;;;;;;;;;5441575;26;20393;-66
2024/04/22 15:26:06;;;;;;;;;;;;;;;;;;5448623;25;19962;-67
2024/04/22 15:28:32;;;;;;;;;;;;;;;;;;5450197;26;19928;-66
2024/04/22 15:30:57;;;;;;;;;;;;;;;;;;5465492;26;19936;-66
2024/04/22 15:33:22;;;;;;;;;;;;;;;;;;5459399;26;19944;-66
2024/04/22 15:35:47;;;;;;;;;;;;;;;;;;5457837;26;20323;-67
2024/04/22 15:38:12;;;;;;;;;;;;;;;;;;5475160;26;20345;-67
2024/04/22 15:40:39;;;;;;;;;;;;;;;;;;5479887;25;19952;-67
2024/04/22 15:43:04;;;;;;;;;;;;;;;;;;5479685;25;20254;-66
2024/04/22 15:45:29;;;;;;;;;;;;;;;;;;5494471;25;19928;-66
2024/04/22 15:47:54;;;;;;;;;;;;;;;;;;5480066;25;20298;-67
2024/04/22 15:50:19;;;;;;;;;;;;;;;;;;5444847;25;20541;-66
2024/04/22 15:52:45;;;;;;;;;;;;;;;;;;5447986;26;19993;-66
2024/04/22 15:55:10;;;;;;;;;;;;;;;;;;5457860;26;20022;-66
2024/04/22 15:57:35;;;;;;;;;;;;;;;;;;5466750;26;20327;-66
2024/04/22 16:00:00;;;;;;;;;;;;;;;;;;5465274;25;19932;-67
2024/04/22 16:02:25;;;;;;;;;;;;;;;;;;5478886;26;19955;-66
2024/04/22 16:04:50;;;;;;;;;;;;;;;;;;5468134;25;19940;-66
2024/04/22 16:07:15;;;;;;;;;;;;;;;;;;5471915;25;19928;-66
2024/04/22 16:09:41;;;;;;;;;;;;;;;;;;5458822;26;19937;-66
2024/04/22 16:12:06;;;;;;;;;;;;;;;;;;5472677;26;19928;-67
2024/04/22 16:14:31;;;;;;;;;;;;;;;;;;5479379;25;20246;-66
2024/04/22 16:16:56;;;;;;;;;;;;;;;;;;5465031;26;20422;-66
2024/04/22 16:19:22;;;;;;;;;;;;;;;;;;5427456;26;19939;-66
2024/04/22 16:21:47;;;;;;;;;;;;;;;;;;5470704;25;19932;-66
2024/04/22 16:24:12;;;;;;;;;;;;;;;;;;5479056;25;19927;-66
2024/04/22 16:26:37;;;;;;;;;;;;;;;;;;5465063;25;20235;-66
2024/04/22 16:29:02;;;;;;;;;;;;;;;;;;5439891;26;19964;-66
2024/04/22 16:31:27;;;;;;;;;;;;;;;;;;5447914;26;20366;-66
2024/04/22 16:33:52;;;;;;;;;;;;;;;;;;5483476;25;19928;-65
2024/04/22 16:36:18;;;;;;;;;;;;;;;;;;5482222;25;19928;-65
2024/04/22 16:38:43;;;;;;;;;;;;;;;;;;5483711;25;19964;-66